Time;durP1;ratioP1;P1;durP2;ratioP2;P2;SDS_P1;SDS_P2;PMS_P1;PMS_P2;Temp;Humidity;BMP_temperature;BMP_pressure;BME280_temperature;BME280_humidity;BME280_pressure;Samples;Min_cycle;Max_cycle;Signal;HPM_P1;HPM_P2
2023/10/25 00:05:03;;;;;;;28.57;19.30;;;16.20;99.90;;;;;;5015990;28;20214;-80
2023/10/25 00:07:43;;;;;;;31.20;21.07;;;16.20;99.90;;;;;;4991039;28;20205;-80
2023/10/25 00:10:13;;;;;;;30.00;20.53;;;16.20;99.90;;;;;;4993326;28;20573;-79
2023/10/25 00:12:41;;;;;;;26.97;20.97;;;16.20;99.90;;;;;;4996644;28;20291;-80
2023/10/25 00:15:09;;;;;;;28.07;20.03;;;16.20;99.90;;;;;;5018225;28;20203;-79
2023/10/25 00:17:37;;;;;;;30.23;20.83;;;16.20;99.90;;;;;;5026003;28;20231;-79
2023/10/25 00:20:06;;;;;;;30.07;20.00;;;16.10;99.90;;;;;;5007359;28;20215;-80
2023/10/25 00:22:34;;;;;;;29.33;21.67;;;16.20;99.90;;;;;;5000405;28;20299;-80
2023/10/25 00:25:01;;;;;;;28.93;21.07;;;16.20;99.90;;;;;;4993086;28;20200;-79
2023/10/25 00:27:29;;;;;;;29.97;22.03;;;16.10;99.90;;;;;;4999094;28;20205;-79
2023/10/25 00:33:59;;;;;;;27.37;20.73;;;16.10;99.90;;;;;;5015446;28;20201;-79
2023/10/25 00:36:29;;;;;;;28.63;20.20;;;16.00;99.90;;;;;;5029811;28;20642;-79
2023/10/25 00:39:00;;;;;;;29.40;20.20;;;15.90;99.90;;;;;;5030293;28;20207;-79
2023/10/25 00:41:27;;;;;;;28.97;21.73;;;15.90;99.90;;;;;;5009812;28;20217;-79
2023/10/25 00:43:57;;;;;;;31.27;20.73;;;15.90;99.90;;;;;;5030962;28;20519;-79
2023/10/25 00:46:29;;;;;;;29.53;19.60;;;15.80;99.90;;;;;;5013944;28;20295;-79
2023/10/25 00:48:59;;;;;;;24.80;19.67;;;15.80;99.90;;;;;;5009154;28;20210;-79
2023/10/25 00:51:28;;;;;;;28.37;19.90;;;15.80;99.90;;;;;;4998892;28;20201;-79
2023/10/25 00:53:59;;;;;;;25.33;19.73;;;15.70;99.90;;;;;;5030961;28;20564;-79
2023/10/25 00:56:31;;;;;;;29.47;20.03;;;15.70;99.90;;;;;;4993374;28;20240;-79
2023/10/25 00:58:59;;;;;;;26.97;21.47;;;15.70;99.90;;;;;;4999083;28;20537;-79
2023/10/25 01:01:28;;;;;;;28.00;21.33;;;15.80;99.90;;;;;;5018389;28;20203;-79
2023/10/25 01:03:56;;;;;;;28.07;20.83;;;15.70;99.90;;;;;;5011042;28;20291;-80
2023/10/25 01:06:24;;;;;;;26.60;20.63;;;15.70;99.90;;;;;;5034224;28;20199;-79
2023/10/25 01:08:52;;;;;;;25.93;20.07;;;15.70;99.90;;;;;;5014863;28;20239;-79
2023/10/25 01:11:20;;;;;;;30.03;21.50;;;15.70;99.90;;;;;;5014349;28;20204;-79
2023/10/25 01:13:48;;;;;;;27.97;21.07;;;15.60;99.90;;;;;;5003119;28;20219;-79
2023/10/25 01:16:16;;;;;;;32.23;22.40;;;15.60;99.90;;;;;;5017343;28;20203;-79
2023/10/25 01:18:44;;;;;;;28.70;21.60;;;15.60;99.90;;;;;;5017810;28;20219;-79
2023/10/25 01:21:11;;;;;;;28.20;20.37;;;15.70;99.90;;;;;;5004733;28;20684;-78
2023/10/25 01:23:40;;;;;;;29.53;21.70;;;15.60;99.90;;;;;;4994606;28;20277;-79
2023/10/25 01:26:07;;;;;;;30.93;21.37;;;15.60;99.90;;;;;;5017757;28;20223;-79
2023/10/25 01:28:36;;;;;;;31.47;22.30;;;15.60;99.90;;;;;;5000306;28;20219;-79
2023/10/25 01:31:05;;;;;;;28.43;20.77;;;15.60;99.90;;;;;;5013371;28;20656;-79
2023/10/25 01:33:34;;;;;;;28.63;20.27;;;15.60;99.90;;;;;;5015112;28;20215;-79
2023/10/25 01:36:05;;;;;;;28.50;20.87;;;15.60;99.90;;;;;;4996632;28;20238;-79
2023/10/25 01:38:32;;;;;;;34.73;22.37;;;15.60;99.90;;;;;;5016892;28;20215;-79
2023/10/25 01:41:00;;;;;;;34.27;23.57;;;15.60;99.90;;;;;;4997750;28;20220;-79
2023/10/25 01:43:28;;;;;;;34.90;23.77;;;15.60;99.90;;;;;;5030416;28;20242;-79
2023/10/25 01:45:56;;;;;;;31.20;23.87;;;15.60;99.90;;;;;;4997869;28;20207;-79
2023/10/25 01:48:23;;;;;;;32.07;23.03;;;15.50;99.90;;;;;;5015464;28;20524;-80
2023/10/25 01:50:54;;;;;;;37.73;25.20;;;15.50;99.90;;;;;;4997399;28;21020;-78
2023/10/25 01:53:22;;;;;;;33.23;24.57;;;15.50;99.90;;;;;;5014461;28;20641;-79
2023/10/25 01:55:50;;;;;;;35.30;22.90;;;15.50;99.90;;;;;;4998812;28;20203;-79
2023/10/25 01:58:19;;;;;;;33.53;24.57;;;15.50;99.90;;;;;;4998880;28;20211;-80
2023/10/25 02:00:51;;;;;;;36.63;22.90;;;15.40;99.90;;;;;;5002327;28;20217;-87
2023/10/25 02:03:19;;;;;;;32.27;23.10;;;15.40;99.90;;;;;;4991560;28;20207;-79
2023/10/25 02:05:47;;;;;;;29.77;22.10;;;15.30;99.90;;;;;;4998317;28;20243;-80
2023/10/25 02:08:14;;;;;;;30.90;20.90;;;15.30;99.90;;;;;;5004029;28;20211;-79
2023/10/25 02:10:42;;;;;;;34.77;22.60;;;15.20;99.90;;;;;;5010090;28;20638;-80
2023/10/25 02:13:09;;;;;;;29.17;21.30;;;15.20;99.90;;;;;;5032647;28;20216;-79
2023/10/25 02:15:36;;;;;;;34.00;21.83;;;15.10;99.90;;;;;;5013181;28;20610;-79
2023/10/25 02:18:04;;;;;;;30.10;20.80;;;15.10;99.90;;;;;;5021708;28;20211;-79
2023/10/25 02:20:31;;;;;;;31.33;22.90;;;15.10;99.90;;;;;;5006326;28;20227;-80
2023/10/25 02:22:59;;;;;;;61.90;20.77;;;15.10;99.90;;;;;;4998822;28;20294;-79
2023/10/25 02:25:26;;;;;;;28.50;20.47;;;15.00;99.90;;;;;;4999046;28;20311;-79
2023/10/25 02:27:54;;;;;;;30.13;21.13;;;15.00;99.90;;;;;;4995352;28;20209;-79
2023/10/25 02:30:22;;;;;;;31.20;21.97;;;14.90;99.90;;;;;;4994449;28;20210;-79
2023/10/25 02:32:49;;;;;;;32.93;21.87;;;14.90;99.90;;;;;;5010701;28;20275;-79
2023/10/25 02:35:18;;;;;;;25.83;19.77;;;14.90;99.90;;;;;;4999090;28;20211;-79
2023/10/25 02:37:53;;;;;;;28.33;22.30;;;14.90;99.90;;;;;;4997575;28;20242;-79
2023/10/25 02:40:24;;;;;;;31.17;21.93;;;14.90;99.90;;;;;;5011928;28;20215;-79
2023/10/25 02:42:52;;;;;;;29.27;21.40;;;14.90;99.90;;;;;;4992216;28;20212;-79
2023/10/25 02:45:19;;;;;;;28.27;19.17;;;14.90;99.90;;;;;;5006281;28;20294;-80
2023/10/25 02:47:47;;;;;;;32.13;21.90;;;14.80;99.90;;;;;;4998415;28;20201;-80
2023/10/25 02:50:15;;;;;;;40.77;20.03;;;14.90;99.90;;;;;;5012516;28;20192;-80
2023/10/25 02:52:48;;;;;;;59.33;21.53;;;14.90;99.90;;;;;;4999412;28;20207;-79
2023/10/25 02:55:16;;;;;;;38.30;19.50;;;14.90;99.90;;;;;;4996378;28;20218;-79
2023/10/25 02:57:47;;;;;;;27.93;19.77;;;14.90;99.90;;;;;;5001712;28;20210;-79
2023/10/25 03:00:14;;;;;;;27.10;19.90;;;14.80;99.90;;;;;;5023798;28;20226;-79
2023/10/25 03:02:42;;;;;;;20.03;14.43;;;14.80;99.90;;;;;;5003832;28;20269;-80
2023/10/25 03:05:10;;;;;;;25.70;19.70;;;14.80;99.90;;;;;;4994829;28;20563;-79
2023/10/25 03:07:37;;;;;;;20.50;15.53;;;14.70;99.90;;;;;;5011618;28;20350;-79
2023/10/25 03:10:06;;;;;;;24.67;16.17;;;14.70;99.90;;;;;;5016531;28;20281;-79
2023/10/25 03:12:34;;;;;;;20.77;16.57;;;14.70;99.90;;;;;;4998440;28;20216;-79
2023/10/25 03:15:04;;;;;;;27.50;20.90;;;14.70;99.90;;;;;;4992113;28;20212;-80
2023/10/25 03:17:31;;;;;;;27.43;19.87;;;14.60;99.90;;;;;;4991364;28;20290;-80
2023/10/25 03:20:00;;;;;;;31.07;22.33;;;14.60;99.90;;;;;;4998440;28;20222;-80
2023/10/25 03:22:28;;;;;;;27.90;19.93;;;14.60;99.90;;;;;;5010341;28;20246;-79
2023/10/25 03:24:59;;;;;;;27.77;20.17;;;14.50;99.90;;;;;;4996698;28;20205;-79
2023/10/25 03:27:27;;;;;;;28.97;21.47;;;14.50;99.90;;;;;;4995364;28;20203;-79
2023/10/25 03:29:55;;;;;;;31.43;22.40;;;14.50;99.90;;;;;;4996400;28;20562;-79
2023/10/25 03:32:22;;;;;;;33.13;21.37;;;14.50;99.90;;;;;;5009385;28;20208;-80
2023/10/25 03:34:53;;;;;;;26.13;20.93;;;14.40;99.90;;;;;;5010366;28;20235;-79
2023/10/25 03:37:20;;;;;;;33.83;23.50;;;14.40;99.90;;;;;;5002165;28;20243;-81
2023/10/25 03:39:49;;;;;;;31.93;22.87;;;14.40;99.90;;;;;;5009712;28;20238;-79
2023/10/25 03:42:16;;;;;;;30.30;21.13;;;14.40;99.90;;;;;;5030173;28;20226;-80
2023/10/25 03:44:45;;;;;;;30.30;22.57;;;14.40;99.90;;;;;;5004632;28;20216;-80
2023/10/25 03:47:12;;;;;;;32.17;23.27;;;14.30;99.90;;;;;;4991607;28;20623;-80
2023/10/25 03:49:40;;;;;;;69.97;21.23;;;14.30;99.90;;;;;;4990032;28;20204;-80
2023/10/25 03:52:07;;;;;;;195.50;25.03;;;14.30;99.90;;;;;;4992967;28;20572;-80
2023/10/25 03:54:38;;;;;;;163.47;23.43;;;14.20;99.90;;;;;;5023077;28;20211;-80
2023/10/25 03:57:06;;;;;;;39.67;21.37;;;14.20;99.90;;;;;;5017161;28;20207;-80
2023/10/25 03:59:34;;;;;;;111.50;21.13;;;14.10;99.90;;;;;;4997154;28;20274;-80
2023/10/25 04:02:01;;;;;;;54.70;17.27;;;14.10;99.90;;;;;;5008599;28;20228;-80
2023/10/25 04:04:29;;;;;;;57.13;18.90;;;14.10;99.90;;;;;;5010868;28;20257;-80
2023/10/25 04:06:57;;;;;;;48.50;17.73;;;14.10;99.90;;;;;;5031613;28;20217;-80
2023/10/25 04:09:25;;;;;;;99.77;18.67;;;14.10;99.90;;;;;;5007556;28;20646;-80
2023/10/25 04:11:52;;;;;;;76.27;17.30;;;14.00;99.90;;;;;;5011735;28;20212;-80
2023/10/25 04:14:20;;;;;;;45.03;17.03;;;14.00;99.90;;;;;;5031365;28;20195;-80
2023/10/25 04:16:47;;;;;;;34.40;15.53;;;14.00;99.90;;;;;;4999242;28;20218;-80
2023/10/25 04:19:15;;;;;;;51.53;16.00;;;14.00;99.90;;;;;;4998936;28;20207;-80
2023/10/25 04:21:42;;;;;;;24.97;16.53;;;14.00;99.90;;;;;;5030054;28;20220;-80
2023/10/25 04:24:10;;;;;;;19.37;16.03;;;13.90;99.90;;;;;;4990809;28;20204;-79
2023/10/25 04:26:37;;;;;;;94.43;17.23;;;13.90;99.90;;;;;;4990335;28;20720;-80
2023/10/25 04:29:05;;;;;;;94.30;18.63;;;13.90;99.90;;;;;;5031441;28;20211;-80
2023/10/25 04:31:33;;;;;;;240.97;19.53;;;13.90;99.90;;;;;;5001336;28;20221;-80
2023/10/25 04:34:01;;;;;;;138.00;16.83;;;13.90;99.90;;;;;;5032069;28;20632;-79
2023/10/25 04:36:28;;;;;;;151.27;17.03;;;13.90;99.90;;;;;;5015703;28;20254;-80
2023/10/25 04:38:56;;;;;;;118.30;16.27;;;13.80;99.90;;;;;;5028605;28;20265;-80
2023/10/25 04:41:24;;;;;;;44.27;17.37;;;13.80;99.90;;;;;;5001657;28;20219;-80
2023/10/25 04:43:51;;;;;;;130.37;16.73;;;13.80;99.90;;;;;;5012506;28;20211;-80
2023/10/25 04:46:19;;;;;;;44.43;17.47;;;13.80;99.90;;;;;;5008943;28;20209;-79
2023/10/25 04:48:49;;;;;;;43.37;15.77;;;13.80;99.90;;;;;;5014104;28;20242;-80
2023/10/25 04:51:17;;;;;;;87.17;15.70;;;13.80;99.90;;;;;;5010956;28;20209;-80
2023/10/25 04:53:46;;;;;;;166.50;17.63;;;13.80;99.90;;;;;;5005512;28;20223;-79
2023/10/25 04:56:13;;;;;;;128.60;16.47;;;13.80;99.90;;;;;;5018247;28;20199;-80
2023/10/25 04:58:40;;;;;;;46.67;15.33;;;13.90;99.90;;;;;;5012186;28;20214;-80
2023/10/25 05:01:14;;;;;;;70.73;16.57;;;13.90;99.90;;;;;;5017737;28;20294;-79
2023/10/25 05:03:45;;;;;;;60.77;15.83;;;13.90;99.90;;;;;;4998216;28;20711;-80
2023/10/25 05:06:13;;;;;;;29.43;16.97;;;13.90;99.90;;;;;;4994852;28;20206;-78
2023/10/25 05:08:42;;;;;;;54.30;17.33;;;13.90;99.90;;;;;;5035053;28;20628;-79
2023/10/25 05:11:15;;;;;;;28.20;16.70;;;13.90;99.90;;;;;;5001349;28;20201;-79
2023/10/25 05:13:43;;;;;;;31.20;16.63;;;13.90;99.90;;;;;;5017899;28;20206;-81
2023/10/25 05:16:11;;;;;;;46.67;16.60;;;13.90;99.90;;;;;;5032697;28;20198;-80
2023/10/25 05:18:40;;;;;;;40.77;16.67;;;14.00;99.90;;;;;;5001285;28;20211;-79
2023/10/25 05:21:21;;;;;;;36.27;16.13;;;14.00;99.90;;;;;;5019879;28;20227;-80
2023/10/25 05:23:49;;;;;;;22.70;16.20;;;14.00;99.90;;;;;;4995110;28;20208;-79
2023/10/25 05:26:16;;;;;;;64.50;16.73;;;14.00;99.90;;;;;;5001458;28;20204;-79
2023/10/25 05:28:44;;;;;;;161.57;17.43;;;14.10;99.90;;;;;;5031097;28;20206;-79
2023/10/25 05:31:17;;;;;;;66.03;15.87;;;14.10;99.90;;;;;;5012110;28;20215;-80
2023/10/25 05:33:45;;;;;;;17.83;14.57;;;14.10;99.90;;;;;;5010785;28;20196;-79
2023/10/25 05:36:14;;;;;;;88.33;16.57;;;14.10;99.90;;;;;;5017514;28;20658;-80
2023/10/25 05:38:42;;;;;;;22.43;16.80;;;14.10;99.90;;;;;;5014399;28;20318;-80
2023/10/25 05:41:16;;;;;;;83.27;17.17;;;14.10;99.90;;;;;;5013966;28;20207;-80
2023/10/25 05:43:55;;;;;;;21.70;15.97;;;14.10;99.90;;;;;;5033528;28;20216;-80
2023/10/25 05:46:24;;;;;;;23.23;16.13;;;14.10;99.90;;;;;;5030283;28;20350;-81
2023/10/25 05:48:55;;;;;;;102.33;18.17;;;14.10;99.90;;;;;;4998305;28;20214;-80
2023/10/25 05:51:24;;;;;;;34.37;17.63;;;14.10;99.90;;;;;;4993781;28;20266;-80
2023/10/25 05:53:52;;;;;;;30.90;19.00;;;14.10;99.90;;;;;;5010132;28;20212;-80
2023/10/25 05:56:25;;;;;;;74.47;19.03;;;14.20;99.90;;;;;;5032468;28;20195;-80
2023/10/25 05:58:55;;;;;;;148.30;20.93;;;14.20;99.90;;;;;;5013394;28;20293;-80
2023/10/25 06:01:47;;;;;;;305.10;24.37;;;14.20;99.90;;;;;;5013952;28;20200;-80
2023/10/25 06:04:18;;;;;;;42.13;20.83;;;14.20;99.90;;;;;;4988279;28;20200;-79
2023/10/25 06:06:47;;;;;;;393.37;32.97;;;14.20;99.90;;;;;;4997354;28;20207;-80
2023/10/25 06:09:15;;;;;;;57.47;23.30;;;14.20;99.90;;;;;;5016127;28;20889;-80
2023/10/25 06:11:48;;;;;;;135.57;25.57;;;14.20;99.90;;;;;;5017188;28;20253;-80
2023/10/25 06:14:31;;;;;;;68.07;26.13;;;14.30;99.90;;;;;;5017541;28;20539;-80
2023/10/25 06:17:02;;;;;;;70.77;24.93;;;14.30;99.90;;;;;;5007773;28;20670;-80
2023/10/25 06:19:38;;;;;;;70.77;25.43;;;14.40;99.90;;;;;;5017879;28;20212;-80
2023/10/25 06:22:05;;;;;;;99.50;25.57;;;14.50;99.90;;;;;;4996291;28;20237;-80
2023/10/25 06:24:34;;;;;;;109.07;26.20;;;14.50;99.90;;;;;;5007230;28;20236;-80
2023/10/25 06:27:02;;;;;;;81.83;26.23;;;14.60;99.90;;;;;;5016660;28;20229;-81
2023/10/25 06:29:34;;;;;;;298.27;30.87;;;14.60;99.90;;;;;;5006821;28;20557;-80
2023/10/25 06:32:05;;;;;;;279.40;31.63;;;14.60;99.90;;;;;;5029050;28;20553;-80
2023/10/25 06:34:33;;;;;;;136.87;28.10;;;14.60;99.90;;;;;;5014803;28;20207;-80
2023/10/25 06:37:02;;;;;;;89.13;26.30;;;14.70;99.90;;;;;;5014507;28;20329;-80
2023/10/25 06:39:30;;;;;;;134.23;27.77;;;14.70;99.90;;;;;;5007750;28;20251;-80
2023/10/25 06:42:02;;;;;;;105.60;27.93;;;14.70;99.90;;;;;;5030052;28;20223;-81
2023/10/25 06:44:33;;;;;;;92.27;28.07;;;14.70;99.90;;;;;;4992542;28;20237;-80
2023/10/25 06:47:03;;;;;;;112.07;26.73;;;14.80;99.90;;;;;;4999573;28;20669;-79
2023/10/25 06:49:32;;;;;;;93.50;25.17;;;14.80;99.90;;;;;;4988772;28;20208;-78
2023/10/25 06:52:01;;;;;;;107.80;25.23;;;14.90;99.90;;;;;;4995472;28;20643;-79
2023/10/25 06:54:30;;;;;;;58.03;23.87;;;14.90;99.90;;;;;;4994262;28;20283;-80
2023/10/25 06:56:58;;;;;;;360.83;30.37;;;14.90;99.90;;;;;;4988614;28;20310;-81
2023/10/25 06:59:27;;;;;;;56.60;23.90;;;14.90;99.90;;;;;;4994192;28;20207;-80
2023/10/25 07:02:17;;;;;;;57.20;23.40;;;14.90;99.90;;;;;;4988633;28;20278;-80
2023/10/25 07:04:49;;;;;;;57.23;22.97;;;14.90;99.90;;;;;;5014445;28;20204;-80
2023/10/25 07:07:25;;;;;;;75.13;24.50;;;14.90;99.90;;;;;;5009147;28;20223;-80
2023/10/25 07:09:53;;;;;;;86.10;25.27;;;14.90;99.90;;;;;;5011500;28;20270;-80
2023/10/25 07:12:23;;;;;;;69.67;24.10;;;15.00;99.90;;;;;;5013909;28;20211;-80
2023/10/25 07:14:54;;;;;;;49.90;22.77;;;15.00;99.90;;;;;;5028854;28;20293;-80
2023/10/25 07:17:24;;;;;;;87.07;25.43;;;15.00;99.90;;;;;;5010159;28;20200;-81
2023/10/25 07:19:58;;;;;;;94.10;26.07;;;15.10;99.90;;;;;;5014138;28;20219;-80
2023/10/25 07:22:28;;;;;;;154.07;25.37;;;15.10;99.90;;;;;;5009187;28;20233;-80
2023/10/25 07:24:56;;;;;;;53.43;25.00;;;15.10;99.90;;;;;;5031850;28;20647;-80
2023/10/25 07:27:26;;;;;;;59.57;24.37;;;15.10;99.90;;;;;;5014325;28;20203;-81
2023/10/25 07:29:54;;;;;;;48.67;25.37;;;15.10;99.90;;;;;;5001072;28;20224;-80
2023/10/25 07:32:22;;;;;;;70.73;25.90;;;15.10;99.90;;;;;;5013928;28;20209;-80
2023/10/25 07:34:51;;;;;;;69.90;25.33;;;15.20;99.90;;;;;;4994329;28;20209;-81
2023/10/25 07:37:19;;;;;;;94.67;26.80;;;15.20;99.90;;;;;;5012224;28;20314;-81
2023/10/25 07:39:50;;;;;;;115.77;26.30;;;15.20;99.90;;;;;;4990875;28;20204;-80
2023/10/25 07:42:24;;;;;;;51.00;24.67;;;15.20;99.90;;;;;;5014935;28;20229;-80
2023/10/25 07:45:16;;;;;;;68.37;22.50;;;15.20;99.90;;;;;;5008714;28;20207;-80
2023/10/25 07:47:46;;;;;;;220.53;29.37;;;15.20;99.90;;;;;;5004421;28;20665;-80
2023/10/25 07:50:18;;;;;;;188.07;27.33;;;15.20;99.90;;;;;;5009295;28;20200;-80
2023/10/25 07:52:45;;;;;;;95.20;24.97;;;15.20;99.90;;;;;;5000077;28;20264;-80
2023/10/25 07:55:13;;;;;;;313.97;31.23;;;15.20;99.90;;;;;;5015375;28;20223;-79
2023/10/25 07:58:03;;;;;;;237.27;33.10;;;15.20;99.90;;;;;;5013560;28;20214;-80
2023/10/25 08:00:55;;;;;;;217.67;31.63;;;15.20;99.90;;;;;;4996624;28;20207;-80
2023/10/25 08:03:29;;;;;;;114.53;27.63;;;15.20;99.90;;;;;;5009194;28;20226;-80
2023/10/25 08:06:00;;;;;;;375.07;30.13;;;15.20;99.90;;;;;;4998611;28;20286;-80
2023/10/25 08:08:30;;;;;;;197.67;29.23;;;15.30;99.90;;;;;;5016173;28;20286;-80
2023/10/25 08:11:07;;;;;;;178.77;27.97;;;15.30;99.90;;;;;;5031487;28;20204;-80
2023/10/25 08:13:38;;;;;;;97.40;27.07;;;15.30;99.90;;;;;;5032007;28;20238;-80
2023/10/25 08:16:06;;;;;;;305.83;29.13;;;15.30;99.90;;;;;;5014620;28;20215;-80
2023/10/25 08:18:35;;;;;;;256.83;28.27;;;15.40;99.90;;;;;;5027849;28;20224;-80
2023/10/25 08:21:03;;;;;;;79.07;26.13;;;15.40;99.90;;;;;;5013798;28;20212;-80
2023/10/25 08:23:34;;;;;;;188.83;28.50;;;15.50;99.90;;;;;;5016409;28;20212;-80
2023/10/25 08:26:03;;;;;;;79.90;27.70;;;15.50;99.90;;;;;;5010229;28;20226;-80
2023/10/25 08:28:31;;;;;;;59.27;25.73;;;15.60;99.90;;;;;;5008111;28;20532;-80
2023/10/25 08:30:59;;;;;;;166.33;27.17;;;15.70;99.90;;;;;;5011957;28;20602;-80
2023/10/25 08:33:35;;;;;;;201.33;28.87;;;15.80;99.90;;;;;;5027485;28;20238;-81
2023/10/25 08:36:08;;;;;;;146.03;27.13;;;15.80;99.90;;;;;;5003464;28;20218;-80
2023/10/25 08:38:40;;;;;;;125.13;26.33;;;15.80;99.90;;;;;;5013065;28;20758;-80
2023/10/25 08:41:27;;;;;;;95.10;25.47;;;15.80;99.90;;;;;;5013829;28;20203;-80
2023/10/25 08:44:00;;;;;;;269.87;27.50;;;15.80;99.90;;;;;;5018161;28;20223;-78
2023/10/25 08:46:33;;;;;;;51.23;26.40;;;15.80;99.90;;;;;;5015031;28;20220;-80
2023/10/25 08:49:02;;;;;;;44.53;26.10;;;15.80;99.90;;;;;;5002648;28;20206;-80
2023/10/25 08:51:35;;;;;;;51.70;25.77;;;15.90;99.90;;;;;;5029688;28;20262;-79
2023/10/25 08:54:03;;;;;;;90.87;25.80;;;15.90;99.90;;;;;;5009544;28;20216;-80
2023/10/25 08:56:31;;;;;;;35.43;25.53;;;16.00;99.90;;;;;;5011209;28;20282;-79
2023/10/25 08:58:59;;;;;;;54.13;25.07;;;16.10;99.90;;;;;;5030392;28;20209;-80
2023/10/25 09:01:38;;;;;;;67.70;25.60;;;16.10;99.90;;;;;;5010281;28;20299;-80
2023/10/25 09:04:07;;;;;;;47.90;24.47;;;16.10;99.90;;;;;;5010650;28;20220;-79
2023/10/25 09:06:39;;;;;;;36.93;25.43;;;16.10;99.90;;;;;;5013032;28;20199;-80
2023/10/25 09:09:09;;;;;;;32.77;23.43;;;16.10;99.90;;;;;;5012215;28;20312;-79
2023/10/25 09:11:45;;;;;;;38.40;23.87;;;16.10;99.90;;;;;;4998063;28;20300;-80
2023/10/25 09:14:46;;;;;;;30.87;22.30;;;16.10;99.90;;;;;;5012555;28;20231;-80
2023/10/25 09:17:28;;;;;;;35.33;23.70;;;16.20;99.90;;;;;;4998267;28;20300;-79
2023/10/25 09:20:08;;;;;;;36.47;24.33;;;16.20;99.90;;;;;;5007939;28;20291;-80
2023/10/25 09:22:36;;;;;;;34.83;24.70;;;16.30;99.90;;;;;;5033463;28;20220;-80
2023/10/25 09:25:05;;;;;;;34.33;25.27;;;16.30;99.90;;;;;;5011006;28;20239;-79
2023/10/25 09:27:42;;;;;;;32.43;24.07;;;16.30;99.90;;;;;;4994750;28;20207;-79
2023/10/25 09:30:16;;;;;;;42.00;26.80;;;16.40;99.90;;;;;;5032242;28;20195;-79
2023/10/25 09:32:47;;;;;;;46.27;29.73;;;16.40;99.90;;;;;;5015220;28;20302;-80
2023/10/25 09:35:15;;;;;;;47.37;29.70;;;16.40;99.90;;;;;;5015008;28;20215;-79
2023/10/25 09:37:49;;;;;;;47.77;30.07;;;16.50;99.90;;;;;;5001950;28;20731;-79
2023/10/25 09:40:18;;;;;;;40.53;29.33;;;16.60;99.90;;;;;;5005800;28;20208;-79
2023/10/25 09:43:19;;;;;;;36.97;25.80;;;16.60;99.90;;;;;;4992221;28;20556;-79
2023/10/25 09:45:58;;;;;;;40.10;28.13;;;16.80;99.90;;;;;;5016012;28;20229;-80
2023/10/25 09:48:42;;;;;;;34.77;27.03;;;16.90;99.90;;;;;;4999672;28;20233;-79
2023/10/25 09:51:23;;;;;;;34.90;24.97;;;17.00;99.90;;;;;;4993162;28;20196;-79
2023/10/25 09:54:00;;;;;;;32.60;23.80;;;17.10;99.90;;;;;;4996113;28;20200;-79
2023/10/25 09:56:29;;;;;;;29.83;22.83;;;17.20;99.90;;;;;;5021049;28;20209;-79
2023/10/25 09:59:00;;;;;;;30.20;21.77;;;17.30;99.90;;;;;;5015911;28;20210;-80
2023/10/25 10:01:29;;;;;;;31.90;22.00;;;17.40;99.90;;;;;;5021450;28;20209;-79
2023/10/25 10:04:19;;;;;;;27.40;21.23;;;17.40;99.90;;;;;;5037625;28;20237;-79
2023/10/25 10:07:09;;;;;;;29.27;20.67;;;17.50;99.90;;;;;;5022363;28;20214;-79
2023/10/25 10:10:04;;;;;;;31.03;22.97;;;17.50;99.90;;;;;;5003770;28;20281;-80
2023/10/25 10:12:32;;;;;;;26.27;20.10;;;17.60;99.90;;;;;;5003544;28;20232;-79
2023/10/25 10:15:02;;;;;;;30.57;22.40;;;17.60;99.90;;;;;;5000496;28;20216;-80
2023/10/25 10:17:48;;;;;;;29.57;22.10;;;17.70;99.90;;;;;;5014901;28;20203;-79
2023/10/25 10:20:29;;;;;;;32.83;22.80;;;17.90;99.90;;;;;;5003627;28;20267;-79
2023/10/25 10:23:08;;;;;;;28.00;21.33;;;18.10;99.90;;;;;;5015380;28;20218;-79
2023/10/25 10:25:50;;;;;;;28.40;22.67;;;18.20;99.90;;;;;;5033878;28;20216;-79
2023/10/25 10:28:37;;;;;;;28.67;20.57;;;18.40;99.90;;;;;;4995553;28;20197;-79
2023/10/25 10:31:09;;;;;;;28.40;20.97;;;18.60;99.90;;;;;;5016876;28;20213;-81
2023/10/25 10:33:54;;;;;;;27.67;19.97;;;18.70;99.90;;;;;;5013861;28;20206;-81
2023/10/25 10:36:31;;;;;;;28.93;21.50;;;19.00;99.90;;;;;;5015048;28;20239;-80
2023/10/25 10:39:16;;;;;;;26.83;18.87;;;19.20;99.50;;;;;;5019681;28;20209;-79
2023/10/25 10:41:50;;;;;;;28.67;20.03;;;19.50;99.00;;;;;;5017332;28;20218;-80
2023/10/25 10:44:18;;;;;;;25.63;20.10;;;19.60;98.50;;;;;;5022429;28;20258;-79
2023/10/25 10:47:44;;;;;;;27.53;20.13;;;19.80;98.40;;;;;;4998488;28;20280;-80
2023/10/25 10:50:13;;;;;;;24.57;19.00;;;19.90;98.30;;;;;;4998886;28;20312;-80
2023/10/25 10:52:50;;;;;;;25.70;17.87;;;20.20;98.10;;;;;;5025141;28;20210;-80
2023/10/25 10:55:25;;;;;;;24.43;17.23;;;20.40;98.00;;;;;;5034882;28;20639;-80
2023/10/25 10:58:32;;;;;;;25.97;17.60;;;20.50;97.80;;;;;;5015903;28;20226;-79
2023/10/25 11:01:54;;;;;;;;;;;;;;;;;;;;;
2023/10/25 11:04:54;;;;;;;19.17;13.03;;;20.70;96.60;;;;;;5030272;28;20741;-80
2023/10/25 11:07:28;;;;;;;14.97;10.20;;;20.70;96.30;;;;;;4998917;28;20617;-80
2023/10/25 11:10:00;;;;;;;14.37;10.17;;;20.60;95.60;;;;;;5014400;28;20223;-79
2023/10/25 11:12:28;;;;;;;15.20;8.67;;;20.50;95.00;;;;;;5009517;28;20612;-81
2023/10/25 11:15:13;;;;;;;24.13;9.73;;;20.50;94.70;;;;;;5022275;28;20199;-81
2023/10/25 11:17:53;;;;;;;14.70;11.57;;;20.40;94.40;;;;;;4990407;28;20207;-80
2023/10/25 11:20:54;;;;;;;12.50;10.77;;;20.30;94.40;;;;;;5014772;28;20202;-80
2023/10/25 11:23:25;;;;;;;14.60;9.73;;;20.30;94.80;;;;;;5015638;28;20317;-81
2023/10/25 11:25:54;;;;;;;10.57;9.43;;;20.20;94.90;;;;;;5004730;28;20213;-80
2023/10/25 11:28:29;;;;;;;10.87;9.73;;;20.10;94.60;;;;;;4996478;28;20637;-80
2023/10/25 11:31:03;;;;;;;13.17;9.03;;;20.10;94.70;;;;;;5013424;28;20203;-81
2023/10/25 11:33:49;;;;;;;10.13;7.63;;;20.10;94.70;;;;;;5015630;28;20211;-80
2023/10/25 11:36:20;;;;;;;12.40;8.60;;;20.00;94.90;;;;;;4997221;28;20318;-81
2023/10/25 11:39:04;;;;;;;11.70;8.43;;;20.00;94.90;;;;;;5028327;28;20214;-81
2023/10/25 11:41:37;;;;;;;11.63;9.00;;;19.90;94.70;;;;;;4999566;28;20200;-81
2023/10/25 11:44:06;;;;;;;13.37;9.60;;;19.90;94.60;;;;;;5005250;28;20244;-80
2023/10/25 11:47:22;;;;;;;12.20;8.10;;;19.90;94.90;;;;;;5015695;28;20212;-81
2023/10/25 11:49:56;;;;;;;12.33;9.10;;;19.90;95.10;;;;;;5013480;28;20231;-81
2023/10/25 11:52:40;;;;;;;10.23;7.80;;;20.00;95.20;;;;;;5003206;28;20225;-80
2023/10/25 11:55:10;;;;;;;8.37;6.50;;;20.00;95.10;;;;;;5028549;28;20210;-80
2023/10/25 11:57:43;;;;;;;6.63;5.90;;;20.10;94.90;;;;;;4988772;28;20249;-81
2023/10/25 12:00:15;;;;;;;10.60;6.40;;;20.10;94.80;;;;;;4989450;28;20259;-80
2023/10/25 12:02:46;;;;;;;10.07;8.47;;;20.10;94.70;;;;;;4996061;28;20727;-80
2023/10/25 12:05:24;;;;;;;11.80;8.40;;;20.20;94.70;;;;;;5012476;28;20291;-81
2023/10/25 12:07:56;;;;;;;11.90;7.27;;;20.20;94.80;;;;;;5004474;28;20263;-80
2023/10/25 12:10:30;;;;;;;10.30;7.37;;;20.30;94.60;;;;;;5010270;28;20699;-81
2023/10/25 12:13:00;;;;;;;9.43;6.60;;;20.30;94.30;;;;;;5014010;28;20207;-81
2023/10/25 12:15:32;;;;;;;8.23;6.60;;;20.40;94.10;;;;;;5014617;28;20203;-81
2023/10/25 12:18:05;;;;;;;8.70;7.20;;;20.40;94.00;;;;;;5008835;28;20267;-81
2023/10/25 12:20:47;;;;;;;12.10;7.80;;;20.50;94.10;;;;;;5015561;28;20289;-81
2023/10/25 12:23:21;;;;;;;11.13;7.03;;;20.50;94.10;;;;;;4997421;28;20296;-80
2023/10/25 12:25:55;;;;;;;9.50;7.70;;;20.50;94.20;;;;;;4998606;28;20203;-81
2023/10/25 12:28:31;;;;;;;11.87;9.10;;;20.50;94.00;;;;;;5019216;28;20222;-80
2023/10/25 12:31:51;;;;;;;12.10;8.83;;;20.50;94.00;;;;;;5006705;28;20251;-81
2023/10/25 12:34:23;;;;;;;10.67;8.20;;;20.50;94.10;;;;;;4996141;28;20227;-81
2023/10/25 12:37:02;;;;;;;15.53;9.03;;;20.50;94.10;;;;;;5014116;28;20243;-81
2023/10/25 12:39:31;;;;;;;16.20;9.07;;;20.50;94.20;;;;;;5008433;28;20219;-81
2023/10/25 12:42:06;;;;;;;10.37;9.30;;;20.50;94.20;;;;;;5004883;28;20215;-81
2023/10/25 12:44:40;;;;;;;11.77;9.63;;;20.50;94.30;;;;;;5010323;28;20215;-80
2023/10/25 12:47:16;;;;;;;13.23;8.07;;;20.50;94.30;;;;;;5025969;28;20258;-81
2023/10/25 12:49:44;;;;;;;9.93;7.47;;;20.50;94.50;;;;;;5009697;28;20207;-81
2023/10/25 12:52:12;;;;;;;9.83;6.33;;;20.50;94.40;;;;;;5015477;28;20210;-81
2023/10/25 12:54:40;;;;;;;7.20;5.53;;;20.60;94.10;;;;;;5012510;28;20315;-81
2023/10/25 12:57:12;;;;;;;8.37;5.80;;;20.60;93.70;;;;;;5017315;28;20803;-81
2023/10/25 12:59:45;;;;;;;7.73;5.10;;;20.50;93.70;;;;;;5000411;28;20204;-80
2023/10/25 13:02:19;;;;;;;6.37;4.97;;;20.60;93.40;;;;;;4999283;28;20207;-80